sensor_id;sensor_type;location;lat;lon;timestamp;P1;durP1;ratioP1;P2;durP2;ratioP2
10825;SDS011;5466;55.898;14.094;2024-02-21T00:01:18;44.90;;;10.82;;
10825;SDS011;5466;55.898;14.094;2024-02-21T00:03:20;32.30;;;10.70;;
10825;SDS011;5466;55.898;14.094;2024-02-21T00:05:20;37.20;;;11.20;;
10825;SDS011;5466;55.898;14.094;2024-02-21T00:07:21;35.85;;;10.50;;
10825;SDS011;5466;55.898;14.094;2024-02-21T00:09:22;39.90;;;11.38;;
10825;SDS011;5466;55.898;14.094;2024-02-21T00:11:23;39.55;;;10.70;;
10825;SDS011;5466;55.898;14.094;2024-02-21T00:13:23;38.33;;;10.57;;
10825;SDS011;5466;55.898;14.094;2024-02-21T00:15:24;31.77;;;10.15;;
10825;SDS011;5466;55.898;14.094;2024-02-21T00:17:25;33.85;;;10.80;;
10825;SDS011;5466;55.898;14.094;2024-02-21T00:19:26;33.03;;;11.40;;
10825;SDS011;5466;55.898;14.094;2024-02-21T00:21:26;42.08;;;12.30;;
10825;SDS011;5466;55.898;14.094;2024-02-21T00:23:27;37.75;;;10.52;;
10825;SDS011;5466;55.898;14.094;2024-02-21T00:25:28;43.72;;;12.27;;
10825;SDS011;5466;55.898;14.094;2024-02-21T00:27:29;35.30;;;12.05;;
10825;SDS011;5466;55.898;14.094;2024-02-21T00:29:30;42.50;;;11.00;;
10825;SDS011;5466;55.898;14.094;2024-02-21T00:31:30;33.28;;;10.27;;
10825;SDS011;5466;55.898;14.094;2024-02-21T00:33:31;35.40;;;11.68;;
10825;SDS011;5466;55.898;14.094;2024-02-21T00:35:32;34.58;;;11.88;;
10825;SDS011;5466;55.898;14.094;2024-02-21T00:37:32;32.42;;;10.63;;
10825;SDS011;5466;55.898;14.094;2024-02-21T00:39:33;32.25;;;10.77;;
10825;SDS011;5466;55.898;14.094;2024-02-21T00:41:34;41.50;;;11.65;;
10825;SDS011;5466;55.898;14.094;2024-02-21T00:43:34;30.42;;;11.77;;
10825;SDS011;5466;55.898;14.094;2024-02-21T00:45:35;29.58;;;11.95;;
10825;SDS011;5466;55.898;14.094;2024-02-21T00:47:35;49.58;;;13.68;;
10825;SDS011;5466;55.898;14.094;2024-02-21T00:49:36;43.10;;;12.45;;
10825;SDS011;5466;55.898;14.094;2024-02-21T00:51:37;36.55;;;12.52;;
10825;SDS011;5466;55.898;14.094;2024-02-21T00:53:37;43.20;;;13.60;;
10825;SDS011;5466;55.898;14.094;2024-02-21T00:55:38;28.02;;;12.07;;
10825;SDS011;5466;55.898;14.094;2024-02-21T00:57:40;37.63;;;12.68;;
10825;SDS011;5466;55.898;14.094;2024-02-21T00:59:40;32.90;;;13.20;;
10825;SDS011;5466;55.898;14.094;2024-02-21T01:01:41;32.97;;;13.18;;
10825;SDS011;5466;55.898;14.094;2024-02-21T01:03:42;34.33;;;13.25;;
10825;SDS011;5466;55.898;14.094;2024-02-21T01:05:43;36.05;;;13.88;;
10825;SDS011;5466;55.898;14.094;2024-02-21T01:07:44;40.28;;;12.60;;
10825;SDS011;5466;55.898;14.094;2024-02-21T01:09:44;33.55;;;11.98;;
10825;SDS011;5466;55.898;14.094;2024-02-21T01:11:45;38.75;;;13.48;;
10825;SDS011;5466;55.898;14.094;2024-02-21T01:13:45;42.83;;;14.32;;
10825;SDS011;5466;55.898;14.094;2024-02-21T01:15:46;41.17;;;13.07;;
10825;SDS011;5466;55.898;14.094;2024-02-21T01:17:47;29.23;;;12.70;;
10825;SDS011;5466;55.898;14.094;2024-02-21T01:19:49;37.75;;;13.20;;
10825;SDS011;5466;55.898;14.094;2024-02-21T01:21:50;36.10;;;14.27;;
10825;SDS011;5466;55.898;14.094;2024-02-21T01:23:51;35.67;;;13.85;;
10825;SDS011;5466;55.898;14.094;2024-02-21T01:25:51;40.63;;;14.73;;
10825;SDS011;5466;55.898;14.094;2024-02-21T01:27:52;45.85;;;14.13;;
10825;SDS011;5466;55.898;14.094;2024-02-21T01:29:53;36.70;;;14.93;;
10825;SDS011;5466;55.898;14.094;2024-02-21T01:31:53;39.08;;;15.63;;
10825;SDS011;5466;55.898;14.094;2024-02-21T01:33:54;36.40;;;14.23;;
10825;SDS011;5466;55.898;14.094;2024-02-21T01:35:55;42.47;;;15.27;;
10825;SDS011;5466;55.898;14.094;2024-02-21T01:37:56;42.42;;;15.27;;
10825;SDS011;5466;55.898;14.094;2024-02-21T01:39:56;39.90;;;14.73;;
10825;SDS011;5466;55.898;14.094;2024-02-21T01:41:57;34.70;;;14.98;;
10825;SDS011;5466;55.898;14.094;2024-02-21T01:43:58;34.58;;;13.38;;
10825;SDS011;5466;55.898;14.094;2024-02-21T01:45:59;33.53;;;14.82;;
10825;SDS011;5466;55.898;14.094;2024-02-21T01:48:00;38.17;;;13.80;;
10825;SDS011;5466;55.898;14.094;2024-02-21T01:50:00;28.02;;;12.85;;
10825;SDS011;5466;55.898;14.094;2024-02-21T01:52:02;31.60;;;14.07;;
10825;SDS011;5466;55.898;14.094;2024-02-21T01:54:03;36.50;;;13.00;;
10825;SDS011;5466;55.898;14.094;2024-02-21T01:56:04;30.83;;;13.00;;
10825;SDS011;5466;55.898;14.094;2024-02-21T01:58:06;34.80;;;12.82;;
10825;SDS011;5466;55.898;14.094;2024-02-21T02:00:08;28.13;;;12.57;;
10825;SDS011;5466;55.898;14.094;2024-02-21T02:02:10;23.60;;;11.25;;
10825;SDS011;5466;55.898;14.094;2024-02-21T02:04:10;20.83;;;10.13;;
10825;SDS011;5466;55.898;14.094;2024-02-21T02:06:12;24.23;;;10.00;;
10825;SDS011;5466;55.898;14.094;2024-02-21T02:08:15;22.73;;;10.25;;
10825;SDS011;5466;55.898;14.094;2024-02-21T02:10:17;20.10;;;10.65;;
10825;SDS011;5466;55.898;14.094;2024-02-21T02:12:18;16.45;;;9.38;;
10825;SDS011;5466;55.898;14.094;2024-02-21T02:14:18;26.02;;;10.30;;
10825;SDS011;5466;55.898;14.094;2024-02-21T02:16:19;20.50;;;9.90;;
10825;SDS011;5466;55.898;14.094;2024-02-21T02:18:20;21.27;;;9.52;;
10825;SDS011;5466;55.898;14.094;2024-02-21T02:20:20;23.70;;;10.43;;
10825;SDS011;5466;55.898;14.094;2024-02-21T02:22:27;18.38;;;9.48;;
10825;SDS011;5466;55.898;14.094;2024-02-21T02:24:29;15.60;;;8.98;;
10825;SDS011;5466;55.898;14.094;2024-02-21T02:26:30;14.70;;;8.07;;
10825;SDS011;5466;55.898;14.094;2024-02-21T02:28:30;17.38;;;8.85;;
10825;SDS011;5466;55.898;14.094;2024-02-21T02:30:35;19.30;;;9.55;;
10825;SDS011;5466;55.898;14.094;2024-02-21T02:32:36;17.10;;;9.45;;
10825;SDS011;5466;55.898;14.094;2024-02-21T02:34:36;15.02;;;9.05;;
10825;SDS011;5466;55.898;14.094;2024-02-21T02:36:37;17.75;;;9.75;;
10825;SDS011;5466;55.898;14.094;2024-02-21T02:38:38;17.85;;;9.10;;
10825;SDS011;5466;55.898;14.094;2024-02-21T02:40:38;19.73;;;9.48;;
10825;SDS011;5466;55.898;14.094;2024-02-21T02:42:40;17.27;;;9.90;;
10825;SDS011;5466;55.898;14.094;2024-02-21T02:44:41;20.98;;;9.50;;
10825;SDS011;5466;55.898;14.094;2024-02-21T02:46:41;17.30;;;10.10;;
10825;SDS011;5466;55.898;14.094;2024-02-21T02:48:42;20.27;;;10.15;;
10825;SDS011;5466;55.898;14.094;2024-02-21T02:50:43;21.10;;;10.88;;
10825;SDS011;5466;55.898;14.094;2024-02-21T02:52:44;20.30;;;11.35;;
10825;SDS011;5466;55.898;14.094;2024-02-21T02:54:44;19.15;;;11.02;;
10825;SDS011;5466;55.898;14.094;2024-02-21T02:56:45;17.77;;;10.90;;
10825;SDS011;5466;55.898;14.094;2024-02-21T02:58:46;20.15;;;11.27;;
10825;SDS011;5466;55.898;14.094;2024-02-21T03:00:47;23.88;;;10.88;;
10825;SDS011;5466;55.898;14.094;2024-02-21T03:02:48;20.67;;;10.93;;
10825;SDS011;5466;55.898;14.094;2024-02-21T03:04:49;21.08;;;12.20;;
10825;SDS011;5466;55.898;14.094;2024-02-21T03:06:50;23.50;;;12.75;;
10825;SDS011;5466;55.898;14.094;2024-02-21T03:08:50;22.83;;;13.50;;
10825;SDS011;5466;55.898;14.094;2024-02-21T03:10:54;27.80;;;14.07;;
10825;SDS011;5466;55.898;14.094;2024-02-21T03:12:55;21.25;;;13.00;;
10825;SDS011;5466;55.898;14.094;2024-02-21T03:14:55;23.45;;;13.38;;
10825;SDS011;5466;55.898;14.094;2024-02-21T03:16:59;23.27;;;13.95;;
10825;SDS011;5466;55.898;14.094;2024-02-21T03:19:00;22.00;;;13.30;;
10825;SDS011;5466;55.898;14.094;2024-02-21T03:21:00;28.85;;;14.90;;
10825;SDS011;5466;55.898;14.094;2024-02-21T03:23:01;23.95;;;14.45;;
10825;SDS011;5466;55.898;14.094;2024-02-21T03:25:02;23.45;;;14.10;;
10825;SDS011;5466;55.898;14.094;2024-02-21T03:27:03;22.65;;;13.23;;
10825;SDS011;5466;55.898;14.094;2024-02-21T03:29:04;24.02;;;13.68;;
10825;SDS011;5466;55.898;14.094;2024-02-21T03:31:04;23.67;;;12.88;;
10825;SDS011;5466;55.898;14.094;2024-02-21T03:33:05;19.73;;;12.93;;
10825;SDS011;5466;55.898;14.094;2024-02-21T03:35:06;21.25;;;12.77;;
10825;SDS011;5466;55.898;14.094;2024-02-21T03:37:06;21.05;;;12.07;;
10825;SDS011;5466;55.898;14.094;2024-02-21T03:39:07;18.95;;;11.50;;
10825;SDS011;5466;55.898;14.094;2024-02-21T03:41:09;16.63;;;11.60;;
10825;SDS011;5466;55.898;14.094;2024-02-21T03:43:09;20.73;;;11.77;;
10825;SDS011;5466;55.898;14.094;2024-02-21T03:45:10;21.23;;;12.10;;
10825;SDS011;5466;55.898;14.094;2024-02-21T03:47:11;18.83;;;12.05;;
10825;SDS011;5466;55.898;14.094;2024-02-21T03:49:12;16.83;;;11.15;;
10825;SDS011;5466;55.898;14.094;2024-02-21T03:51:12;19.25;;;12.63;;
10825;SDS011;5466;55.898;14.094;2024-02-21T03:53:14;28.95;;;14.00;;
10825;SDS011;5466;55.898;14.094;2024-02-21T03:55:15;20.65;;;12.23;;
10825;SDS011;5466;55.898;14.094;2024-02-21T03:57:16;24.25;;;14.30;;
10825;SDS011;5466;55.898;14.094;2024-02-21T03:59:17;23.23;;;13.00;;
10825;SDS011;5466;55.898;14.094;2024-02-21T04:01:18;24.00;;;14.25;;
10825;SDS011;5466;55.898;14.094;2024-02-21T04:03:19;30.23;;;16.67;;
10825;SDS011;5466;55.898;14.094;2024-02-21T04:05:19;34.08;;;16.52;;
10825;SDS011;5466;55.898;14.094;2024-02-21T04:07:22;30.88;;;16.88;;
10825;SDS011;5466;55.898;14.094;2024-02-21T04:09:22;31.13;;;17.48;;
10825;SDS011;5466;55.898;14.094;2024-02-21T04:11:23;34.38;;;18.27;;
10825;SDS011;5466;55.898;14.094;2024-02-21T04:13:24;30.23;;;16.50;;
10825;SDS011;5466;55.898;14.094;2024-02-21T04:15:25;34.63;;;17.98;;
10825;SDS011;5466;55.898;14.094;2024-02-21T04:17:26;30.80;;;18.42;;
10825;SDS011;5466;55.898;14.094;2024-02-21T04:19:26;26.70;;;16.27;;
10825;SDS011;5466;55.898;14.094;2024-02-21T04:21:27;29.85;;;17.13;;
10825;SDS011;5466;55.898;14.094;2024-02-21T04:23:28;26.92;;;16.48;;
10825;SDS011;5466;55.898;14.094;2024-02-21T04:25:28;26.40;;;14.90;;
10825;SDS011;5466;55.898;14.094;2024-02-21T04:27:29;26.25;;;15.23;;
10825;SDS011;5466;55.898;14.094;2024-02-21T04:29:30;24.33;;;13.88;;
10825;SDS011;5466;55.898;14.094;2024-02-21T04:31:32;23.70;;;15.35;;
10825;SDS011;5466;55.898;14.094;2024-02-21T04:33:32;25.95;;;14.68;;
10825;SDS011;5466;55.898;14.094;2024-02-21T04:35:33;25.92;;;15.07;;
10825;SDS011;5466;55.898;14.094;2024-02-21T04:37:35;23.17;;;14.00;;
10825;SDS011;5466;55.898;14.094;2024-02-21T04:39:36;20.40;;;14.80;;
10825;SDS011;5466;55.898;14.094;2024-02-21T04:41:37;19.85;;;13.30;;
10825;SDS011;5466;55.898;14.094;2024-02-21T04:43:37;24.30;;;14.52;;
10825;SDS011;5466;55.898;14.094;2024-02-21T04:45:38;20.67;;;11.55;;
10825;SDS011;5466;55.898;14.094;2024-02-21T04:47:38;19.77;;;12.13;;
10825;SDS011;5466;55.898;14.094;2024-02-21T04:49:39;17.90;;;12.05;;
10825;SDS011;5466;55.898;14.094;2024-02-21T04:51:42;17.42;;;11.82;;
10825;SDS011;5466;55.898;14.094;2024-02-21T04:53:43;15.88;;;10.93;;
10825;SDS011;5466;55.898;14.094;2024-02-21T04:55:44;17.13;;;10.25;;
10825;SDS011;5466;55.898;14.094;2024-02-21T04:57:44;13.48;;;9.23;;
10825;SDS011;5466;55.898;14.094;2024-02-21T04:59:46;12.90;;;8.50;;
10825;SDS011;5466;55.898;14.094;2024-02-21T05:01:47;11.80;;;7.93;;
10825;SDS011;5466;55.898;14.094;2024-02-21T05:03:48;9.85;;;7.93;;
10825;SDS011;5466;55.898;14.094;2024-02-21T05:05:49;13.77;;;8.73;;
10825;SDS011;5466;55.898;14.094;2024-02-21T05:07:49;11.93;;;8.25;;
10825;SDS011;5466;55.898;14.094;2024-02-21T05:09:50;12.45;;;8.23;;
10825;SDS011;5466;55.898;14.094;2024-02-21T05:11:50;14.95;;;8.85;;
10825;SDS011;5466;55.898;14.094;2024-02-21T05:13:51;14.73;;;9.07;;
10825;SDS011;5466;55.898;14.094;2024-02-21T05:15:52;13.07;;;9.18;;
10825;SDS011;5466;55.898;14.094;2024-02-21T05:17:52;11.55;;;8.50;;
10825;SDS011;5466;55.898;14.094;2024-02-21T05:19:53;12.63;;;8.52;;
10825;SDS011;5466;55.898;14.094;2024-02-21T05:21:54;11.40;;;7.32;;
10825;SDS011;5466;55.898;14.094;2024-02-21T05:23:54;10.75;;;7.35;;
10825;SDS011;5466;55.898;14.094;2024-02-21T05:25:55;10.93;;;8.15;;
10825;SDS011;5466;55.898;14.094;2024-02-21T05:27:56;9.30;;;6.90;;
10825;SDS011;5466;55.898;14.094;2024-02-21T05:30:01;8.95;;;6.35;;
10825;SDS011;5466;55.898;14.094;2024-02-21T05:32:03;9.95;;;6.75;;
10825;SDS011;5466;55.898;14.094;2024-02-21T05:34:04;8.48;;;6.50;;
10825;SDS011;5466;55.898;14.094;2024-02-21T05:36:04;7.88;;;5.93;;
10825;SDS011;5466;55.898;14.094;2024-02-21T05:38:05;9.45;;;6.18;;
10825;SDS011;5466;55.898;14.094;2024-02-21T05:40:11;6.05;;;5.43;;
10825;SDS011;5466;55.898;14.094;2024-02-21T05:42:13;6.68;;;5.30;;
10825;SDS011;5466;55.898;14.094;2024-02-21T05:44:13;5.13;;;4.53;;
10825;SDS011;5466;55.898;14.094;2024-02-21T05:46:14;4.28;;;3.88;;
10825;SDS011;5466;55.898;14.094;2024-02-21T05:48:19;4.57;;;3.88;;
10825;SDS011;5466;55.898;14.094;2024-02-21T05:50:20;5.32;;;3.92;;
10825;SDS011;5466;55.898;14.094;2024-02-21T05:52:23;4.53;;;3.63;;
10825;SDS011;5466;55.898;14.094;2024-02-21T05:54:24;3.88;;;3.58;;
10825;SDS011;5466;55.898;14.094;2024-02-21T05:56:24;3.88;;;3.38;;
10825;SDS011;5466;55.898;14.094;2024-02-21T05:58:25;4.90;;;3.47;;
10825;SDS011;5466;55.898;14.094;2024-02-21T06:00:26;7.53;;;3.75;;
10825;SDS011;5466;55.898;14.094;2024-02-21T06:02:27;4.03;;;3.55;;
10825;SDS011;5466;55.898;14.094;2024-02-21T06:04:27;4.32;;;3.83;;
10825;SDS011;5466;55.898;14.094;2024-02-21T06:06:28;5.88;;;4.47;;
10825;SDS011;5466;55.898;14.094;2024-02-21T06:08:29;5.15;;;4.10;;
10825;SDS011;5466;55.898;14.094;2024-02-21T06:10:29;6.20;;;4.53;;
10825;SDS011;5466;55.898;14.094;2024-02-21T06:12:30;4.13;;;3.72;;
10825;SDS011;5466;55.898;14.094;2024-02-21T06:14:30;4.13;;;3.72;;
10825;SDS011;5466;55.898;14.094;2024-02-21T06:16:31;4.88;;;4.00;;
10825;SDS011;5466;55.898;14.094;2024-02-21T06:18:32;6.63;;;4.85;;
10825;SDS011;5466;55.898;14.094;2024-02-21T06:20:32;6.32;;;4.75;;
10825;SDS011;5466;55.898;14.094;2024-02-21T06:22:36;6.20;;;5.28;;
10825;SDS011;5466;55.898;14.094;2024-02-21T06:24:36;6.15;;;5.47;;
10825;SDS011;5466;55.898;14.094;2024-02-21T06:26:38;7.22;;;5.63;;
10825;SDS011;5466;55.898;14.094;2024-02-21T06:28:40;7.25;;;6.18;;
10825;SDS011;5466;55.898;14.094;2024-02-21T06:30:41;7.50;;;6.65;;
10825;SDS011;5466;55.898;14.094;2024-02-21T06:32:42;7.78;;;6.40;;
10825;SDS011;5466;55.898;14.094;2024-02-21T06:34:42;6.03;;;5.38;;
10825;SDS011;5466;55.898;14.094;2024-02-21T06:36:44;6.65;;;5.15;;
10825;SDS011;5466;55.898;14.094;2024-02-21T06:38:45;6.03;;;4.45;;
10825;SDS011;5466;55.898;14.094;2024-02-21T06:40:46;7.60;;;4.20;;
10825;SDS011;5466;55.898;14.094;2024-02-21T06:42:50;5.53;;;3.97;;
10825;SDS011;5466;55.898;14.094;2024-02-21T06:44:51;7.00;;;3.58;;
10825;SDS011;5466;55.898;14.094;2024-02-21T06:46:52;5.85;;;3.53;;
10825;SDS011;5466;55.898;14.094;2024-02-21T06:48:54;4.28;;;3.10;;
10825;SDS011;5466;55.898;14.094;2024-02-21T06:50:58;5.70;;;3.00;;
10825;SDS011;5466;55.898;14.094;2024-02-21T06:52:59;5.80;;;3.05;;
10825;SDS011;5466;55.898;14.094;2024-02-21T06:54:59;6.85;;;3.30;;
10825;SDS011;5466;55.898;14.094;2024-02-21T06:57:00;6.35;;;3.05;;
10825;SDS011;5466;55.898;14.094;2024-02-21T06:59:01;6.95;;;2.85;;
10825;SDS011;5466;55.898;14.094;2024-02-21T07:01:03;4.93;;;2.38;;
10825;SDS011;5466;55.898;14.094;2024-02-21T07:03:04;6.13;;;2.33;;
10825;SDS011;5466;55.898;14.094;2024-02-21T07:05:05;6.25;;;2.50;;
10825;SDS011;5466;55.898;14.094;2024-02-21T07:07:06;5.75;;;2.90;;
10825;SDS011;5466;55.898;14.094;2024-02-21T07:09:06;4.18;;;2.30;;
10825;SDS011;5466;55.898;14.094;2024-02-21T07:11:07;4.30;;;2.42;;
10825;SDS011;5466;55.898;14.094;2024-02-21T07:13:08;4.85;;;2.03;;
10825;SDS011;5466;55.898;14.094;2024-02-21T07:15:08;5.72;;;2.80;;
10825;SDS011;5466;55.898;14.094;2024-02-21T07:17:09;8.00;;;3.08;;
10825;SDS011;5466;55.898;14.094;2024-02-21T07:19:10;3.00;;;2.60;;
10825;SDS011;5466;55.898;14.094;2024-02-21T07:21:10;6.22;;;2.63;;
10825;SDS011;5466;55.898;14.094;2024-02-21T07:23:12;8.05;;;2.80;;
10825;SDS011;5466;55.898;14.094;2024-02-21T07:25:13;4.43;;;2.28;;
10825;SDS011;5466;55.898;14.094;2024-02-21T07:27:14;4.97;;;2.78;;
10825;SDS011;5466;55.898;14.094;2024-02-21T07:29:15;4.22;;;2.70;;
10825;SDS011;5466;55.898;14.094;2024-02-21T07:31:16;4.43;;;2.20;;
10825;SDS011;5466;55.898;14.094;2024-02-21T07:33:17;7.25;;;3.60;;
10825;SDS011;5466;55.898;14.094;2024-02-21T07:35:17;6.20;;;2.92;;
10825;SDS011;5466;55.898;14.094;2024-02-21T07:37:18;4.13;;;2.53;;
10825;SDS011;5466;55.898;14.094;2024-02-21T07:39:19;5.80;;;3.00;;
10825;SDS011;5466;55.898;14.094;2024-02-21T07:41:20;6.00;;;2.55;;
10825;SDS011;5466;55.898;14.094;2024-02-21T07:43:20;6.90;;;2.63;;
10825;SDS011;5466;55.898;14.094;2024-02-21T07:45:22;5.30;;;2.45;;
10825;SDS011;5466;55.898;14.094;2024-02-21T07:47:24;6.30;;;2.25;;
10825;SDS011;5466;55.898;14.094;2024-02-21T07:49:24;5.50;;;2.42;;
10825;SDS011;5466;55.898;14.094;2024-02-21T07:51:27;5.63;;;3.13;;
10825;SDS011;5466;55.898;14.094;2024-02-21T07:53:28;4.75;;;2.30;;
10825;SDS011;5466;55.898;14.094;2024-02-21T07:55:29;9.23;;;2.60;;
10825;SDS011;5466;55.898;14.094;2024-02-21T07:57:29;6.68;;;2.60;;
10825;SDS011;5466;55.898;14.094;2024-02-21T07:59:30;8.20;;;2.15;;
10825;SDS011;5466;55.898;14.094;2024-02-21T08:01:31;14.02;;;3.20;;
10825;SDS011;5466;55.898;14.094;2024-02-21T08:03:31;4.93;;;2.15;;
10825;SDS011;5466;55.898;14.094;2024-02-21T08:05:34;7.25;;;2.80;;
10825;SDS011;5466;55.898;14.094;2024-02-21T08:07:35;4.78;;;2.10;;
10825;SDS011;5466;55.898;14.094;2024-02-21T08:09:36;9.18;;;2.53;;
10825;SDS011;5466;55.898;14.094;2024-02-21T08:11:37;8.43;;;2.65;;
10825;SDS011;5466;55.898;14.094;2024-02-21T08:13:38;7.10;;;2.30;;
10825;SDS011;5466;55.898;14.094;2024-02-21T08:15:39;6.28;;;2.80;;
10825;SDS011;5466;55.898;14.094;2024-02-21T08:17:41;7.72;;;2.17;;
10825;SDS011;5466;55.898;14.094;2024-02-21T08:19:42;6.35;;;2.47;;
10825;SDS011;5466;55.898;14.094;2024-02-21T08:21:42;9.73;;;2.63;;
10825;SDS011;5466;55.898;14.094;2024-02-21T08:23:43;6.82;;;2.03;;
10825;SDS011;5466;55.898;14.094;2024-02-21T08:25:44;9.75;;;2.58;;
10825;SDS011;5466;55.898;14.094;2024-02-21T08:27:45;8.18;;;2.55;;
10825;SDS011;5466;55.898;14.094;2024-02-21T08:29:46;4.50;;;2.00;;
10825;SDS011;5466;55.898;14.094;2024-02-21T08:31:46;7.18;;;2.40;;
10825;SDS011;5466;55.898;14.094;2024-02-21T08:33:47;8.80;;;1.83;;
10825;SDS011;5466;55.898;14.094;2024-02-21T08:35:48;10.80;;;2.78;;
10825;SDS011;5466;55.898;14.094;2024-02-21T08:37:48;9.38;;;2.67;;
10825;SDS011;5466;55.898;14.094;2024-02-21T08:39:49;4.70;;;2.22;;
10825;SDS011;5466;55.898;14.094;2024-02-21T08:41:49;7.05;;;2.22;;
10825;SDS011;5466;55.898;14.094;2024-02-21T08:43:51;8.18;;;2.08;;
10825;SDS011;5466;55.898;14.094;2024-02-21T08:45:53;12.35;;;2.65;;
10825;SDS011;5466;55.898;14.094;2024-02-21T08:47:54;9.80;;;2.40;;
10825;SDS011;5466;55.898;14.094;2024-02-21T08:49:55;6.03;;;2.33;;
10825;SDS011;5466;55.898;14.094;2024-02-21T08:51:55;15.27;;;3.33;;
10825;SDS011;5466;55.898;14.094;2024-02-21T08:53:56;6.18;;;2.20;;
10825;SDS011;5466;55.898;14.094;2024-02-21T08:55:56;6.05;;;2.65;;
10825;SDS011;5466;55.898;14.094;2024-02-21T08:57:57;8.73;;;2.40;;
10825;SDS011;5466;55.898;14.094;2024-02-21T08:59:58;11.02;;;2.85;;
10825;SDS011;5466;55.898;14.094;2024-02-21T09:01:58;7.55;;;2.42;;
10825;SDS011;5466;55.898;14.094;2024-02-21T09:03:59;7.57;;;2.85;;
10825;SDS011;5466;55.898;14.094;2024-02-21T09:06:00;8.98;;;2.33;;
10825;SDS011;5466;55.898;14.094;2024-02-21T09:08:00;8.18;;;2.60;;
10825;SDS011;5466;55.898;14.094;2024-02-21T09:10:01;10.85;;;2.47;;
10825;SDS011;5466;55.898;14.094;2024-02-21T09:12:02;7.47;;;2.30;;
10825;SDS011;5466;55.898;14.094;2024-02-21T09:14:05;6.93;;;2.40;;
10825;SDS011;5466;55.898;14.094;2024-02-21T09:16:06;9.18;;;2.63;;
10825;SDS011;5466;55.898;14.094;2024-02-21T09:18:07;8.70;;;1.98;;
10825;SDS011;5466;55.898;14.094;2024-02-21T09:20:07;10.00;;;2.28;;
10825;SDS011;5466;55.898;14.094;2024-02-21T09:22:11;8.60;;;2.60;;
10825;SDS011;5466;55.898;14.094;2024-02-21T09:24:12;7.95;;;2.08;;
10825;SDS011;5466;55.898;14.094;2024-02-21T09:26:13;9.50;;;2.17;;
10825;SDS011;5466;55.898;14.094;2024-02-21T09:28:16;9.65;;;2.50;;
10825;SDS011;5466;55.898;14.094;2024-02-21T09:30:16;6.47;;;2.45;;
10825;SDS011;5466;55.898;14.094;2024-02-21T09:32:18;17.85;;;2.72;;
10825;SDS011;5466;55.898;14.094;2024-02-21T09:34:19;8.60;;;1.80;;
10825;SDS011;5466;55.898;14.094;2024-02-21T09:36:19;9.18;;;2.25;;
10825;SDS011;5466;55.898;14.094;2024-02-21T09:38:21;6.40;;;2.15;;
10825;SDS011;5466;55.898;14.094;2024-02-21T09:40:22;9.82;;;2.13;;
10825;SDS011;5466;55.898;14.094;2024-02-21T09:42:23;7.18;;;2.10;;
10825;SDS011;5466;55.898;14.094;2024-02-21T09:44:37;5.60;;;1.73;;
10825;SDS011;5466;55.898;14.094;2024-02-21T09:46:52;7.95;;;2.17;;
10825;SDS011;5466;55.898;14.094;2024-02-21T09:51:37;9.18;;;2.30;;
10825;SDS011;5466;55.898;14.094;2024-02-21T09:53:40;2.90;;;1.35;;
10825;SDS011;5466;55.898;14.094;2024-02-21T09:55:43;3.47;;;1.20;;
10825;SDS011;5466;55.898;14.094;2024-02-21T09:57:44;2.63;;;1.45;;
10825;SDS011;5466;55.898;14.094;2024-02-21T09:59:45;2.88;;;0.90;;
10825;SDS011;5466;55.898;14.094;2024-02-21T10:01:46;2.50;;;1.20;;
10825;SDS011;5466;55.898;14.094;2024-02-21T10:03:47;1.88;;;1.00;;
10825;SDS011;5466;55.898;14.094;2024-02-21T10:05:48;2.30;;;1.30;;
10825;SDS011;5466;55.898;14.094;2024-02-21T10:07:52;1.60;;;1.00;;
10825;SDS011;5466;55.898;14.094;2024-02-21T10:10:02;4.82;;;1.27;;
10825;SDS011;5466;55.898;14.094;2024-02-21T10:12:09;2.78;;;1.00;;
10825;SDS011;5466;55.898;14.094;2024-02-21T10:14:11;2.72;;;1.58;;
10825;SDS011;5466;55.898;14.094;2024-02-21T10:16:12;4.50;;;1.20;;
10825;SDS011;5466;55.898;14.094;2024-02-21T10:18:13;2.67;;;1.20;;
10825;SDS011;5466;55.898;14.094;2024-02-21T10:20:18;5.75;;;1.17;;
10825;SDS011;5466;55.898;14.094;2024-02-21T10:22:19;2.53;;;1.23;;
10825;SDS011;5466;55.898;14.094;2024-02-21T10:24:26;3.00;;;1.13;;
10825;SDS011;5466;55.898;14.094;2024-02-21T10:26:28;2.08;;;1.23;;
10825;SDS011;5466;55.898;14.094;2024-02-21T10:28:29;3.60;;;1.33;;
10825;SDS011;5466;55.898;14.094;2024-02-21T10:30:30;2.20;;;1.20;;
10825;SDS011;5466;55.898;14.094;2024-02-21T10:32:30;5.40;;;1.00;;
10825;SDS011;5466;55.898;14.094;2024-02-21T10:34:31;1.33;;;0.90;;
10825;SDS011;5466;55.898;14.094;2024-02-21T10:36:32;2.92;;;1.10;;
10825;SDS011;5466;55.898;14.094;2024-02-21T10:38:32;3.58;;;1.05;;
10825;SDS011;5466;55.898;14.094;2024-02-21T10:40:33;2.60;;;1.27;;
10825;SDS011;5466;55.898;14.094;2024-02-21T10:42:34;1.67;;;0.85;;
10825;SDS011;5466;55.898;14.094;2024-02-21T10:44:38;2.35;;;0.93;;
10825;SDS011;5466;55.898;14.094;2024-02-21T10:46:40;0.95;;;0.77;;
10825;SDS011;5466;55.898;14.094;2024-02-21T10:48:43;5.00;;;1.10;;
10825;SDS011;5466;55.898;14.094;2024-02-21T10:51:02;1.00;;;0.80;;
10825;SDS011;5466;55.898;14.094;2024-02-21T10:53:58;0.50;;;0.50;;
10825;SDS011;5466;55.898;14.094;2024-02-21T10:56:04;2.30;;;0.93;;
10825;SDS011;5466;55.898;14.094;2024-02-21T10:58:27;2.20;;;0.82;;
10825;SDS011;5466;55.898;14.094;2024-02-21T11:00:30;3.03;;;1.80;;
10825;SDS011;5466;55.898;14.094;2024-02-21T11:02:32;1.48;;;1.00;;
10825;SDS011;5466;55.898;14.094;2024-02-21T11:04:34;2.58;;;0.80;;
10825;SDS011;5466;55.898;14.094;2024-02-21T11:06:36;0.50;;;0.50;;
10825;SDS011;5466;55.898;14.094;2024-02-21T11:08:38;2.45;;;0.85;;
10825;SDS011;5466;55.898;14.094;2024-02-21T11:10:39;0.70;;;0.70;;
10825;SDS011;5466;55.898;14.094;2024-02-21T11:12:41;1.52;;;0.65;;
10825;SDS011;5466;55.898;14.094;2024-02-21T11:14:41;1.77;;;0.98;;
10825;SDS011;5466;55.898;14.094;2024-02-21T11:16:42;0.68;;;0.68;;
10825;SDS011;5466;55.898;14.094;2024-02-21T11:18:43;0.70;;;0.70;;
10825;SDS011;5466;55.898;14.094;2024-02-21T11:20:49;0.98;;;0.75;;
10825;SDS011;5466;55.898;14.094;2024-02-21T11:22:51;0.90;;;0.70;;
10825;SDS011;5466;55.898;14.094;2024-02-21T11:24:52;0.70;;;0.70;;
10825;SDS011;5466;55.898;14.094;2024-02-21T11:26:53;0.85;;;0.63;;
10825;SDS011;5466;55.898;14.094;2024-02-21T11:29:00;1.42;;;0.63;;
10825;SDS011;5466;55.898;14.094;2024-02-21T11:31:12;1.65;;;1.00;;
10825;SDS011;5466;55.898;14.094;2024-02-21T11:33:14;0.60;;;0.60;;
10825;SDS011;5466;55.898;14.094;2024-02-21T11:35:19;1.45;;;0.75;;
10825;SDS011;5466;55.898;14.094;2024-02-21T11:37:20;1.42;;;0.60;;
10825;SDS011;5466;55.898;14.094;2024-02-21T11:39:21;2.63;;;0.80;;
10825;SDS011;5466;55.898;14.094;2024-02-21T11:41:24;0.98;;;0.88;;
10825;SDS011;5466;55.898;14.094;2024-02-21T11:43:26;1.95;;;1.10;;
10825;SDS011;5466;55.898;14.094;2024-02-21T11:45:27;2.60;;;1.00;;
10825;SDS011;5466;55.898;14.094;2024-02-21T11:47:28;1.42;;;0.90;;
10825;SDS011;5466;55.898;14.094;2024-02-21T11:49:29;1.20;;;0.95;;
10825;SDS011;5466;55.898;14.094;2024-02-21T11:51:32;0.90;;;0.90;;
10825;SDS011;5466;55.898;14.094;2024-02-21T11:53:34;1.35;;;0.80;;
10825;SDS011;5466;55.898;14.094;2024-02-21T11:55:35;1.25;;;0.90;;
10825;SDS011;5466;55.898;14.094;2024-02-21T11:57:36;1.40;;;1.00;;
10825;SDS011;5466;55.898;14.094;2024-02-21T11:59:43;1.52;;;1.10;;
10825;SDS011;5466;55.898;14.094;2024-02-21T12:01:44;1.67;;;1.02;;
10825;SDS011;5466;55.898;14.094;2024-02-21T12:03:46;4.28;;;1.42;;
10825;SDS011;5466;55.898;14.094;2024-02-21T12:05:49;2.10;;;1.30;;